Revloc, Pennsylvania
Current Conditions -  °F | °C
As of 6:54 AM on Thursday 27 Nov 2014 (Local Time) from KJST Reporting Station
Haze Haze  
Wind Chill: 23°   Ceiling: 3700
Heat Index: 28°   Visibility: 5mi
Dew Point: 26°   Wind: 5mph
Humidity: 92%   Direction: 300°WNW
Pressure: 29.94"   Gusts: NA
Location:  40.49°N, 78.76°W
Report Text: KJST 271154Z AUTO 30004KT 5SM BR FEW004 OVC037 M02/M03 A2994 RMK AO2 SLP162 60000 70026 I6001 T10221033 11017 21022 53005
Loading
Personal Weather Stations






























Interactive Weather Map New forecast layout! Learn more

10-Day Weather Forecast

Advertisements
Track Severe Weather on mobile